sensor_id;sensor_type;location;lat;lon;timestamp;temperature;humidity
43561;DHT22;32305;46.410;17.394;2023-05-17T00:00:55;23.00;54.60
43561;DHT22;32305;46.410;17.394;2023-05-17T00:03:22;23.00;54.70
43561;DHT22;32305;46.410;17.394;2023-05-17T00:05:49;23.00;54.70
43561;DHT22;32305;46.410;17.394;2023-05-17T00:08:16;23.00;54.70
43561;DHT22;32305;46.410;17.394;2023-05-17T00:10:43;23.00;54.70
43561;DHT22;32305;46.410;17.394;2023-05-17T00:13:10;23.00;54.70
43561;DHT22;32305;46.410;17.394;2023-05-17T00:15:37;23.00;54.70
43561;DHT22;32305;46.410;17.394;2023-05-17T00:18:05;23.00;54.70
43561;DHT22;32305;46.410;17.394;2023-05-17T00:20:32;23.00;54.70
43561;DHT22;32305;46.410;17.394;2023-05-17T00:23:00;23.00;54.70
43561;DHT22;32305;46.410;17.394;2023-05-17T00:25:27;23.00;54.70
43561;DHT22;32305;46.410;17.394;2023-05-17T00:27:55;23.00;54.70
43561;DHT22;32305;46.410;17.394;2023-05-17T00:30:22;23.00;54.70
43561;DHT22;32305;46.410;17.394;2023-05-17T00:32:49;23.00;54.60
43561;DHT22;32305;46.410;17.394;2023-05-17T00:35:16;23.00;54.60
43561;DHT22;32305;46.410;17.394;2023-05-17T00:37:43;23.00;54.50
43561;DHT22;32305;46.410;17.394;2023-05-17T00:40:14;23.00;54.50
43561;DHT22;32305;46.410;17.394;2023-05-17T00:42:44;23.00;54.40
43561;DHT22;32305;46.410;17.394;2023-05-17T00:45:11;23.00;54.40
43561;DHT22;32305;46.410;17.394;2023-05-17T00:47:39;23.00;54.40
43561;DHT22;32305;46.410;17.394;2023-05-17T00:50:06;23.00;54.40
43561;DHT22;32305;46.410;17.394;2023-05-17T00:52:34;23.00;54.30
43561;DHT22;32305;46.410;17.394;2023-05-17T00:55:02;23.00;54.30
43561;DHT22;32305;46.410;17.394;2023-05-17T00:57:30;23.00;54.30
43561;DHT22;32305;46.410;17.394;2023-05-17T00:59:58;23.00;54.30
43561;DHT22;32305;46.410;17.394;2023-05-17T01:02:26;23.00;54.30
43561;DHT22;32305;46.410;17.394;2023-05-17T01:04:53;23.00;54.30
43561;DHT22;32305;46.410;17.394;2023-05-17T01:07:20;23.00;54.20
43561;DHT22;32305;46.410;17.394;2023-05-17T01:09:47;23.00;54.20
43561;DHT22;32305;46.410;17.394;2023-05-17T01:12:31;23.00;54.30
43561;DHT22;32305;46.410;17.394;2023-05-17T01:15:14;23.00;54.20
43561;DHT22;32305;46.410;17.394;2023-05-17T01:18:19;23.00;54.20
43561;DHT22;32305;46.410;17.394;2023-05-17T01:20:48;23.00;54.20
43561;DHT22;32305;46.410;17.394;2023-05-17T01:23:30;23.00;54.20
43561;DHT22;32305;46.410;17.394;2023-05-17T01:26:09;23.00;54.30
43561;DHT22;32305;46.410;17.394;2023-05-17T01:28:41;23.00;54.20
43561;DHT22;32305;46.410;17.394;2023-05-17T01:31:10;23.00;54.20
43561;DHT22;32305;46.410;17.394;2023-05-17T01:33:37;23.00;54.30
43561;DHT22;32305;46.410;17.394;2023-05-17T01:36:05;22.90;54.20
43561;DHT22;32305;46.410;17.394;2023-05-17T01:38:33;23.00;54.20
43561;DHT22;32305;46.410;17.394;2023-05-17T01:41:17;22.90;54.20
43561;DHT22;32305;46.410;17.394;2023-05-17T01:44:07;22.90;54.30
43561;DHT22;32305;46.410;17.394;2023-05-17T01:46:40;22.90;54.20
43561;DHT22;32305;46.410;17.394;2023-05-17T01:49:34;22.90;54.20
43561;DHT22;32305;46.410;17.394;2023-05-17T01:52:23;22.90;54.20
43561;DHT22;32305;46.410;17.394;2023-05-17T01:57:53;22.90;54.20
43561;DHT22;32305;46.410;17.394;2023-05-17T02:00:23;22.90;54.30
43561;DHT22;32305;46.410;17.394;2023-05-17T02:02:51;22.90;54.30
43561;DHT22;32305;46.410;17.394;2023-05-17T02:05:18;22.90;54.30
43561;DHT22;32305;46.410;17.394;2023-05-17T02:07:45;22.90;54.40
43561;DHT22;32305;46.410;17.394;2023-05-17T02:10:12;22.90;54.40
43561;DHT22;32305;46.410;17.394;2023-05-17T02:12:40;22.90;54.40
43561;DHT22;32305;46.410;17.394;2023-05-17T02:15:07;22.80;54.30
43561;DHT22;32305;46.410;17.394;2023-05-17T02:17:37;22.90;54.40
43561;DHT22;32305;46.410;17.394;2023-05-17T02:20:07;22.90;54.40
43561;DHT22;32305;46.410;17.394;2023-05-17T02:22:34;22.80;54.30
43561;DHT22;32305;46.410;17.394;2023-05-17T02:25:01;22.90;54.90
43561;DHT22;32305;46.410;17.394;2023-05-17T02:27:29;22.80;54.30
43561;DHT22;32305;46.410;17.394;2023-05-17T02:29:56;22.90;54.20
43561;DHT22;32305;46.410;17.394;2023-05-17T02:32:23;22.90;54.20
43561;DHT22;32305;46.410;17.394;2023-05-17T02:34:50;22.90;54.20
43561;DHT22;32305;46.410;17.394;2023-05-17T02:37:17;22.90;54.10
43561;DHT22;32305;46.410;17.394;2023-05-17T02:39:45;22.90;54.10
43561;DHT22;32305;46.410;17.394;2023-05-17T02:42:12;22.90;54.00
43561;DHT22;32305;46.410;17.394;2023-05-17T02:44:39;22.90;54.00
43561;DHT22;32305;46.410;17.394;2023-05-17T02:47:06;22.90;54.00
43561;DHT22;32305;46.410;17.394;2023-05-17T02:49:34;22.90;54.00
43561;DHT22;32305;46.410;17.394;2023-05-17T02:52:01;22.90;54.00
43561;DHT22;32305;46.410;17.394;2023-05-17T02:54:28;22.90;54.00
43561;DHT22;32305;46.410;17.394;2023-05-17T02:56:55;22.90;54.00
43561;DHT22;32305;46.410;17.394;2023-05-17T02:59:22;22.90;54.00
43561;DHT22;32305;46.410;17.394;2023-05-17T03:01:49;22.90;53.90
43561;DHT22;32305;46.410;17.394;2023-05-17T03:04:16;22.90;53.90
43561;DHT22;32305;46.410;17.394;2023-05-17T03:06:46;22.90;53.90
43561;DHT22;32305;46.410;17.394;2023-05-17T03:09:13;22.90;53.90
43561;DHT22;32305;46.410;17.394;2023-05-17T03:11:40;22.90;53.90
43561;DHT22;32305;46.410;17.394;2023-05-17T03:14:07;22.90;53.90
43561;DHT22;32305;46.410;17.394;2023-05-17T03:16:34;22.90;54.00
43561;DHT22;32305;46.410;17.394;2023-05-17T03:19:01;22.90;53.90
43561;DHT22;32305;46.410;17.394;2023-05-17T03:21:28;22.90;53.90
43561;DHT22;32305;46.410;17.394;2023-05-17T03:23:56;22.90;54.00
43561;DHT22;32305;46.410;17.394;2023-05-17T03:26:23;22.90;53.90
43561;DHT22;32305;46.410;17.394;2023-05-17T03:28:50;22.90;53.90
43561;DHT22;32305;46.410;17.394;2023-05-17T03:31:18;22.90;54.00
43561;DHT22;32305;46.410;17.394;2023-05-17T03:33:45;22.90;54.00
43561;DHT22;32305;46.410;17.394;2023-05-17T03:36:12;22.90;53.90
43561;DHT22;32305;46.410;17.394;2023-05-17T03:38:40;22.90;53.90
43561;DHT22;32305;46.410;17.394;2023-05-17T03:41:07;22.90;53.90
43561;DHT22;32305;46.410;17.394;2023-05-17T03:43:34;22.90;53.90
43561;DHT22;32305;46.410;17.394;2023-05-17T03:46:01;22.90;53.90
43561;DHT22;32305;46.410;17.394;2023-05-17T03:48:28;22.90;54.00
43561;DHT22;32305;46.410;17.394;2023-05-17T03:50:55;22.80;54.40
43561;DHT22;32305;46.410;17.394;2023-05-17T03:53:22;22.80;53.90
43561;DHT22;32305;46.410;17.394;2023-05-17T03:55:50;22.80;53.90
43561;DHT22;32305;46.410;17.394;2023-05-17T03:58:17;22.80;54.00
43561;DHT22;32305;46.410;17.394;2023-05-17T04:00:44;22.80;54.00
43561;DHT22;32305;46.410;17.394;2023-05-17T04:03:11;22.80;54.00
43561;DHT22;32305;46.410;17.394;2023-05-17T04:05:39;22.80;54.00
43561;DHT22;32305;46.410;17.394;2023-05-17T04:08:07;22.80;54.00
43561;DHT22;32305;46.410;17.394;2023-05-17T04:10:34;22.80;54.00
43561;DHT22;32305;46.410;17.394;2023-05-17T04:13:01;22.80;54.00
43561;DHT22;32305;46.410;17.394;2023-05-17T04:15:28;22.80;54.00
43561;DHT22;32305;46.410;17.394;2023-05-17T04:17:56;22.80;53.90
43561;DHT22;32305;46.410;17.394;2023-05-17T04:20:23;22.80;53.90
43561;DHT22;32305;46.410;17.394;2023-05-17T04:22:50;22.90;53.80
43561;DHT22;32305;46.410;17.394;2023-05-17T04:25:18;22.90;53.70
43561;DHT22;32305;46.410;17.394;2023-05-17T04:27:45;22.90;53.70
43561;DHT22;32305;46.410;17.394;2023-05-17T04:30:13;22.90;53.70
43561;DHT22;32305;46.410;17.394;2023-05-17T04:32:40;22.90;53.60
43561;DHT22;32305;46.410;17.394;2023-05-17T04:35:09;22.90;53.60
43561;DHT22;32305;46.410;17.394;2023-05-17T04:37:36;22.90;53.50
43561;DHT22;32305;46.410;17.394;2023-05-17T04:40:06;22.90;53.40
43561;DHT22;32305;46.410;17.394;2023-05-17T04:42:34;23.00;53.40
43561;DHT22;32305;46.410;17.394;2023-05-17T04:45:01;22.90;53.30
43561;DHT22;32305;46.410;17.394;2023-05-17T04:47:28;22.90;53.20
43561;DHT22;32305;46.410;17.394;2023-05-17T04:49:56;22.90;53.20
43561;DHT22;32305;46.410;17.394;2023-05-17T04:52:23;22.90;53.20
43561;DHT22;32305;46.410;17.394;2023-05-17T04:54:50;22.90;53.20
43561;DHT22;32305;46.410;17.394;2023-05-17T04:57:17;22.90;53.10
43561;DHT22;32305;46.410;17.394;2023-05-17T04:59:45;22.90;53.00
43561;DHT22;32305;46.410;17.394;2023-05-17T05:02:12;22.90;53.00
43561;DHT22;32305;46.410;17.394;2023-05-17T05:04:39;22.90;53.00
43561;DHT22;32305;46.410;17.394;2023-05-17T05:07:07;22.90;52.90
43561;DHT22;32305;46.410;17.394;2023-05-17T05:09:34;22.90;52.90
43561;DHT22;32305;46.410;17.394;2023-05-17T05:12:01;22.90;52.90
43561;DHT22;32305;46.410;17.394;2023-05-17T05:14:31;22.90;52.80
43561;DHT22;32305;46.410;17.394;2023-05-17T05:16:58;22.90;52.80
43561;DHT22;32305;46.410;17.394;2023-05-17T05:19:25;22.90;52.80
43561;DHT22;32305;46.410;17.394;2023-05-17T05:21:52;22.80;51.40
43561;DHT22;32305;46.410;17.394;2023-05-17T05:24:20;22.70;51.50
43561;DHT22;32305;46.410;17.394;2023-05-17T05:26:47;22.60;52.00
43561;DHT22;32305;46.410;17.394;2023-05-17T05:29:14;22.50;52.30
43561;DHT22;32305;46.410;17.394;2023-05-17T05:31:41;22.40;52.40
43561;DHT22;32305;46.410;17.394;2023-05-17T05:34:08;22.30;52.50
43561;DHT22;32305;46.410;17.394;2023-05-17T05:36:36;22.30;52.60
43561;DHT22;32305;46.410;17.394;2023-05-17T05:39:03;22.20;52.20
43561;DHT22;32305;46.410;17.394;2023-05-17T05:41:33;22.20;52.70
43561;DHT22;32305;46.410;17.394;2023-05-17T05:44:00;22.10;52.50
43561;DHT22;32305;46.410;17.394;2023-05-17T05:46:27;22.00;52.70
43561;DHT22;32305;46.410;17.394;2023-05-17T05:48:55;21.90;52.60
43561;DHT22;32305;46.410;17.394;2023-05-17T05:51:23;21.90;52.80
43561;DHT22;32305;46.410;17.394;2023-05-17T05:53:50;21.80;53.00
43561;DHT22;32305;46.410;17.394;2023-05-17T05:56:18;21.70;53.10
43561;DHT22;32305;46.410;17.394;2023-05-17T05:58:45;21.70;53.50
43561;DHT22;32305;46.410;17.394;2023-05-17T06:01:12;21.60;53.70
43561;DHT22;32305;46.410;17.394;2023-05-17T06:03:40;21.60;53.60
43561;DHT22;32305;46.410;17.394;2023-05-17T06:06:07;21.50;54.00
43561;DHT22;32305;46.410;17.394;2023-05-17T06:08:34;21.50;54.50
43561;DHT22;32305;46.410;17.394;2023-05-17T06:11:02;21.60;55.00
43561;DHT22;32305;46.410;17.394;2023-05-17T06:13:29;21.70;55.20
43561;DHT22;32305;46.410;17.394;2023-05-17T06:15:56;21.80;55.20
43561;DHT22;32305;46.410;17.394;2023-05-17T06:18:25;21.90;55.20
43561;DHT22;32305;46.410;17.394;2023-05-17T06:20:52;22.00;55.20
43561;DHT22;32305;46.410;17.394;2023-05-17T06:23:20;22.10;55.00
43561;DHT22;32305;46.410;17.394;2023-05-17T06:25:47;22.20;55.00
43561;DHT22;32305;46.410;17.394;2023-05-17T06:28:15;22.30;54.70
43561;DHT22;32305;46.410;17.394;2023-05-17T06:30:43;22.30;54.60
43561;DHT22;32305;46.410;17.394;2023-05-17T06:33:10;22.40;54.40
43561;DHT22;32305;46.410;17.394;2023-05-17T06:35:38;22.50;54.30
43561;DHT22;32305;46.410;17.394;2023-05-17T06:38:22;22.50;54.10
43561;DHT22;32305;46.410;17.394;2023-05-17T06:40:53;22.60;54.00
43561;DHT22;32305;46.410;17.394;2023-05-17T06:43:21;22.60;53.90
43561;DHT22;32305;46.410;17.394;2023-05-17T06:45:49;22.70;53.80
43561;DHT22;32305;46.410;17.394;2023-05-17T06:48:16;22.70;53.70
43561;DHT22;32305;46.410;17.394;2023-05-17T06:50:43;22.80;53.50
43561;DHT22;32305;46.410;17.394;2023-05-17T06:53:11;22.90;53.40
43561;DHT22;32305;46.410;17.394;2023-05-17T06:55:38;22.90;53.20
43561;DHT22;32305;46.410;17.394;2023-05-17T06:58:07;22.90;53.10
43561;DHT22;32305;46.410;17.394;2023-05-17T07:00:35;23.00;53.00
43561;DHT22;32305;46.410;17.394;2023-05-17T07:03:03;23.00;52.90
43561;DHT22;32305;46.410;17.394;2023-05-17T07:05:30;23.00;52.80
43561;DHT22;32305;46.410;17.394;2023-05-17T07:07:58;23.00;52.70
43561;DHT22;32305;46.410;17.394;2023-05-17T07:10:25;23.10;52.70
43561;DHT22;32305;46.410;17.394;2023-05-17T07:12:52;23.10;52.70
43561;DHT22;32305;46.410;17.394;2023-05-17T07:15:19;23.10;52.60
43561;DHT22;32305;46.410;17.394;2023-05-17T07:17:47;23.20;52.50
43561;DHT22;32305;46.410;17.394;2023-05-17T07:20:14;23.20;52.40
43561;DHT22;32305;46.410;17.394;2023-05-17T07:22:42;23.20;52.30
43561;DHT22;32305;46.410;17.394;2023-05-17T07:25:10;23.30;52.20
43561;DHT22;32305;46.410;17.394;2023-05-17T07:27:37;23.30;52.20
43561;DHT22;32305;46.410;17.394;2023-05-17T07:30:04;23.30;52.00
43561;DHT22;32305;46.410;17.394;2023-05-17T07:32:32;23.30;51.90
43561;DHT22;32305;46.410;17.394;2023-05-17T07:35:01;23.30;51.90
43561;DHT22;32305;46.410;17.394;2023-05-17T07:37:28;23.40;51.90
43561;DHT22;32305;46.410;17.394;2023-05-17T07:39:56;23.40;51.80
43561;DHT22;32305;46.410;17.394;2023-05-17T07:42:23;23.40;51.80
43561;DHT22;32305;46.410;17.394;2023-05-17T07:44:50;23.40;51.70
43561;DHT22;32305;46.410;17.394;2023-05-17T07:47:17;23.40;51.70
43561;DHT22;32305;46.410;17.394;2023-05-17T07:49:44;23.40;51.60
43561;DHT22;32305;46.410;17.394;2023-05-17T07:52:12;23.40;51.50
43561;DHT22;32305;46.410;17.394;2023-05-17T07:54:39;23.40;51.50
43561;DHT22;32305;46.410;17.394;2023-05-17T07:57:06;23.50;51.50
43561;DHT22;32305;46.410;17.394;2023-05-17T07:59:34;23.50;51.40
43561;DHT22;32305;46.410;17.394;2023-05-17T08:02:01;23.50;51.40
43561;DHT22;32305;46.410;17.394;2023-05-17T08:04:28;23.50;51.40
43561;DHT22;32305;46.410;17.394;2023-05-17T08:06:55;23.50;51.40
43561;DHT22;32305;46.410;17.394;2023-05-17T08:09:23;23.50;51.30
43561;DHT22;32305;46.410;17.394;2023-05-17T08:11:51;23.50;51.40
43561;DHT22;32305;46.410;17.394;2023-05-17T08:14:22;23.50;51.40
43561;DHT22;32305;46.410;17.394;2023-05-17T08:16:49;23.50;51.40
43561;DHT22;32305;46.410;17.394;2023-05-17T08:19:18;23.60;51.30
43561;DHT22;32305;46.410;17.394;2023-05-17T08:21:46;23.50;51.20
43561;DHT22;32305;46.410;17.394;2023-05-17T08:24:15;23.60;51.00
43561;DHT22;32305;46.410;17.394;2023-05-17T08:26:43;23.60;50.80
43561;DHT22;32305;46.410;17.394;2023-05-17T08:29:10;23.60;50.70
43561;DHT22;32305;46.410;17.394;2023-05-17T08:31:37;23.60;50.60
43561;DHT22;32305;46.410;17.394;2023-05-17T08:34:05;23.60;50.50
43561;DHT22;32305;46.410;17.394;2023-05-17T08:36:33;23.70;50.40
43561;DHT22;32305;46.410;17.394;2023-05-17T08:39:04;23.70;50.50
43561;DHT22;32305;46.410;17.394;2023-05-17T08:41:31;23.70;50.40
43561;DHT22;32305;46.410;17.394;2023-05-17T08:44:08;23.70;50.30
43561;DHT22;32305;46.410;17.394;2023-05-17T08:46:36;23.70;50.20
43561;DHT22;32305;46.410;17.394;2023-05-17T08:49:05;23.80;50.10
43561;DHT22;32305;46.410;17.394;2023-05-17T08:51:33;23.70;50.00
43561;DHT22;32305;46.410;17.394;2023-05-17T08:54:00;23.80;50.10
43561;DHT22;32305;46.410;17.394;2023-05-17T08:56:32;23.80;50.10
43561;DHT22;32305;46.410;17.394;2023-05-17T08:59:02;23.80;50.10
43561;DHT22;32305;46.410;17.394;2023-05-17T09:01:31;23.80;50.00
43561;DHT22;32305;46.410;17.394;2023-05-17T09:03:59;23.80;50.50
43561;DHT22;32305;46.410;17.394;2023-05-17T09:06:26;23.80;49.90
43561;DHT22;32305;46.410;17.394;2023-05-17T09:08:55;23.80;50.00
43561;DHT22;32305;46.410;17.394;2023-05-17T09:11:29;23.80;50.00
43561;DHT22;32305;46.410;17.394;2023-05-17T09:14:04;23.80;50.00
43561;DHT22;32305;46.410;17.394;2023-05-17T09:16:33;23.80;50.00
43561;DHT22;32305;46.410;17.394;2023-05-17T09:19:03;23.90;50.00
43561;DHT22;32305;46.410;17.394;2023-05-17T09:21:31;23.80;49.90
43561;DHT22;32305;46.410;17.394;2023-05-17T09:23:59;23.80;49.90
43561;DHT22;32305;46.410;17.394;2023-05-17T09:26:44;23.90;50.00
43561;DHT22;32305;46.410;17.394;2023-05-17T09:29:15;23.90;49.80
43561;DHT22;32305;46.410;17.394;2023-05-17T09:31:43;23.90;49.70
43561;DHT22;32305;46.410;17.394;2023-05-17T09:34:11;23.90;49.70
43561;DHT22;32305;46.410;17.394;2023-05-17T09:36:41;23.90;49.60
43561;DHT22;32305;46.410;17.394;2023-05-17T09:39:09;24.00;49.50
43561;DHT22;32305;46.410;17.394;2023-05-17T09:41:44;24.10;49.40
43561;DHT22;32305;46.410;17.394;2023-05-17T09:44:14;24.10;49.20
43561;DHT22;32305;46.410;17.394;2023-05-17T09:46:46;24.20;49.00
43561;DHT22;32305;46.410;17.394;2023-05-17T09:49:15;24.20;48.80
43561;DHT22;32305;46.410;17.394;2023-05-17T09:51:45;24.20;48.60
43561;DHT22;32305;46.410;17.394;2023-05-17T09:54:12;24.30;48.60
43561;DHT22;32305;46.410;17.394;2023-05-17T09:56:40;24.30;48.50
43561;DHT22;32305;46.410;17.394;2023-05-17T09:59:12;24.30;48.30
43561;DHT22;32305;46.410;17.394;2023-05-17T10:01:41;24.30;48.20
43561;DHT22;32305;46.410;17.394;2023-05-17T10:04:10;24.30;48.10
43561;DHT22;32305;46.410;17.394;2023-05-17T10:06:38;24.40;48.00
43561;DHT22;32305;46.410;17.394;2023-05-17T10:09:12;24.40;47.90
43561;DHT22;32305;46.410;17.394;2023-05-17T10:11:42;24.40;47.80
43561;DHT22;32305;46.410;17.394;2023-05-17T10:14:27;24.50;47.80
43561;DHT22;32305;46.410;17.394;2023-05-17T10:16:55;24.50;47.60
43561;DHT22;32305;46.410;17.394;2023-05-17T10:19:24;24.50;47.60
43561;DHT22;32305;46.410;17.394;2023-05-17T10:21:52;24.50;47.40
43561;DHT22;32305;46.410;17.394;2023-05-17T10:24:22;24.60;47.40
43561;DHT22;32305;46.410;17.394;2023-05-17T10:26:49;24.60;47.30
43561;DHT22;32305;46.410;17.394;2023-05-17T10:29:18;24.60;47.20
43561;DHT22;32305;46.410;17.394;2023-05-17T10:31:49;24.70;47.10
43561;DHT22;32305;46.410;17.394;2023-05-17T10:34:20;24.70;46.90
43561;DHT22;32305;46.410;17.394;2023-05-17T10:36:48;24.70;46.80
43561;DHT22;32305;46.410;17.394;2023-05-17T10:39:16;24.70;46.90
43561;DHT22;32305;46.410;17.394;2023-05-17T10:41:45;24.70;46.90
43561;DHT22;32305;46.410;17.394;2023-05-17T10:44:15;24.70;46.70
43561;DHT22;32305;46.410;17.394;2023-05-17T10:46:56;24.70;46.60
43561;DHT22;32305;46.410;17.394;2023-05-17T10:49:25;24.70;46.60
43561;DHT22;32305;46.410;17.394;2023-05-17T10:51:53;24.70;46.70
43561;DHT22;32305;46.410;17.394;2023-05-17T10:54:40;24.70;46.80
43561;DHT22;32305;46.410;17.394;2023-05-17T10:57:08;24.70;46.70
43561;DHT22;32305;46.410;17.394;2023-05-17T10:59:58;24.70;46.60
43561;DHT22;32305;46.410;17.394;2023-05-17T11:02:27;24.70;46.50
43561;DHT22;32305;46.410;17.394;2023-05-17T11:04:54;24.70;46.60
43561;DHT22;32305;46.410;17.394;2023-05-17T11:07:26;24.70;46.50
43561;DHT22;32305;46.410;17.394;2023-05-17T11:10:08;24.60;46.50
43561;DHT22;32305;46.410;17.394;2023-05-17T11:12:41;24.70;46.50
43561;DHT22;32305;46.410;17.394;2023-05-17T11:15:16;24.70;46.50
43561;DHT22;32305;46.410;17.394;2023-05-17T11:17:49;24.60;46.90
43561;DHT22;32305;46.410;17.394;2023-05-17T11:20:30;24.60;46.30
43561;DHT22;32305;46.410;17.394;2023-05-17T11:23:02;24.70;46.40
43561;DHT22;32305;46.410;17.394;2023-05-17T11:25:38;24.60;46.40
43561;DHT22;32305;46.410;17.394;2023-05-17T11:28:20;24.60;46.20
43561;DHT22;32305;46.410;17.394;2023-05-17T11:30:48;24.70;46.10
43561;DHT22;32305;46.410;17.394;2023-05-17T11:33:19;24.60;46.00
43561;DHT22;32305;46.410;17.394;2023-05-17T11:36:05;24.60;46.00
43561;DHT22;32305;46.410;17.394;2023-05-17T11:38:39;24.60;45.90
43561;DHT22;32305;46.410;17.394;2023-05-17T11:41:20;24.70;46.10
43561;DHT22;32305;46.410;17.394;2023-05-17T11:43:53;24.70;46.10
43561;DHT22;32305;46.410;17.394;2023-05-17T11:46:22;24.70;46.00
43561;DHT22;32305;46.410;17.394;2023-05-17T11:48:51;24.60;46.00
43561;DHT22;32305;46.410;17.394;2023-05-17T11:51:19;24.70;46.00
43561;DHT22;32305;46.410;17.394;2023-05-17T11:53:53;24.70;45.90
43561;DHT22;32305;46.410;17.394;2023-05-17T11:56:23;24.70;45.90
43561;DHT22;32305;46.410;17.394;2023-05-17T11:59:08;24.70;45.70
43561;DHT22;32305;46.410;17.394;2023-05-17T12:01:46;24.80;45.60
43561;DHT22;32305;46.410;17.394;2023-05-17T12:04:23;24.80;45.70
43561;DHT22;32305;46.410;17.394;2023-05-17T12:06:52;24.70;45.50
43561;DHT22;32305;46.410;17.394;2023-05-17T12:09:21;24.70;45.50
43561;DHT22;32305;46.410;17.394;2023-05-17T12:11:49;24.80;45.50
43561;DHT22;32305;46.410;17.394;2023-05-17T12:14:16;24.70;45.40
43561;DHT22;32305;46.410;17.394;2023-05-17T12:16:44;24.80;46.00
43561;DHT22;32305;46.410;17.394;2023-05-17T12:19:20;24.80;45.40
43561;DHT22;32305;46.410;17.394;2023-05-17T12:21:48;24.80;45.40
43561;DHT22;32305;46.410;17.394;2023-05-17T12:24:16;24.80;45.50
43561;DHT22;32305;46.410;17.394;2023-05-17T12:26:47;24.80;45.40
43561;DHT22;32305;46.410;17.394;2023-05-17T12:29:18;24.80;45.30
43561;DHT22;32305;46.410;17.394;2023-05-17T12:31:50;24.80;45.20
43561;DHT22;32305;46.410;17.394;2023-05-17T12:34:18;24.80;44.20
43561;DHT22;32305;46.410;17.394;2023-05-17T12:36:47;24.70;44.60
43561;DHT22;32305;46.410;17.394;2023-05-17T12:39:15;24.70;44.90
43561;DHT22;32305;46.410;17.394;2023-05-17T12:41:43;24.70;45.00
43561;DHT22;32305;46.410;17.394;2023-05-17T12:44:11;24.60;44.90
43561;DHT22;32305;46.410;17.394;2023-05-17T12:46:43;24.60;44.90
43561;DHT22;32305;46.410;17.394;2023-05-17T12:49:10;24.70;45.00
43561;DHT22;32305;46.410;17.394;2023-05-17T12:51:46;24.70;44.90
43561;DHT22;32305;46.410;17.394;2023-05-17T12:54:24;24.70;44.80
43561;DHT22;32305;46.410;17.394;2023-05-17T12:56:53;24.70;44.90
43561;DHT22;32305;46.410;17.394;2023-05-17T12:59:21;24.60;44.80
43561;DHT22;32305;46.410;17.394;2023-05-17T13:01:55;24.60;44.90
43561;DHT22;32305;46.410;17.394;2023-05-17T13:04:31;24.60;45.00
43561;DHT22;32305;46.410;17.394;2023-05-17T13:07:01;24.60;45.10
43561;DHT22;32305;46.410;17.394;2023-05-17T13:09:30;24.50;45.00
43561;DHT22;32305;46.410;17.394;2023-05-17T13:11:59;24.50;45.20
43561;DHT22;32305;46.410;17.394;2023-05-17T13:14:42;24.50;45.20
43561;DHT22;32305;46.410;17.394;2023-05-17T13:17:33;24.50;45.10
43561;DHT22;32305;46.410;17.394;2023-05-17T13:20:01;24.50;45.00
43561;DHT22;32305;46.410;17.394;2023-05-17T13:22:31;24.50;45.00
43561;DHT22;32305;46.410;17.394;2023-05-17T13:24:58;24.50;44.90
43561;DHT22;32305;46.410;17.394;2023-05-17T13:27:27;24.50;44.90
43561;DHT22;32305;46.410;17.394;2023-05-17T13:29:54;24.40;44.80
43561;DHT22;32305;46.410;17.394;2023-05-17T13:32:21;24.40;44.90
43561;DHT22;32305;46.410;17.394;2023-05-17T13:34:48;24.40;44.90
43561;DHT22;32305;46.410;17.394;2023-05-17T13:37:15;24.40;44.90
43561;DHT22;32305;46.410;17.394;2023-05-17T13:39:43;24.40;44.80
43561;DHT22;32305;46.410;17.394;2023-05-17T13:42:11;24.40;44.60
43561;DHT22;32305;46.410;17.394;2023-05-17T13:44:39;24.40;44.70
43561;DHT22;32305;46.410;17.394;2023-05-17T13:47:06;24.40;44.70
43561;DHT22;32305;46.410;17.394;2023-05-17T13:49:33;24.40;44.80
43561;DHT22;32305;46.410;17.394;2023-05-17T13:52:01;24.40;44.80
43561;DHT22;32305;46.410;17.394;2023-05-17T13:54:29;24.40;44.80
43561;DHT22;32305;46.410;17.394;2023-05-17T13:56:56;24.40;44.80
43561;DHT22;32305;46.410;17.394;2023-05-17T13:59:23;24.40;45.00
43561;DHT22;32305;46.410;17.394;2023-05-17T14:01:51;24.40;45.00
43561;DHT22;32305;46.410;17.394;2023-05-17T14:04:18;24.40;44.90
43561;DHT22;32305;46.410;17.394;2023-05-17T14:06:47;24.40;45.00
43561;DHT22;32305;46.410;17.394;2023-05-17T14:09:16;24.50;45.20
43561;DHT22;32305;46.410;17.394;2023-05-17T14:11:43;24.50;45.40
43561;DHT22;32305;46.410;17.394;2023-05-17T14:14:11;24.50;45.50
43561;DHT22;32305;46.410;17.394;2023-05-17T14:16:38;24.50;45.70
43561;DHT22;32305;46.410;17.394;2023-05-17T14:19:06;24.60;45.80
43561;DHT22;32305;46.410;17.394;2023-05-17T14:21:34;24.60;45.90
43561;DHT22;32305;46.410;17.394;2023-05-17T14:24:01;24.60;45.90
43561;DHT22;32305;46.410;17.394;2023-05-17T14:26:28;24.60;45.90
43561;DHT22;32305;46.410;17.394;2023-05-17T14:28:56;24.60;45.80
43561;DHT22;32305;46.410;17.394;2023-05-17T14:31:23;24.60;45.80
43561;DHT22;32305;46.410;17.394;2023-05-17T14:33:50;24.60;45.90
43561;DHT22;32305;46.410;17.394;2023-05-17T14:36:17;24.60;45.90
43561;DHT22;32305;46.410;17.394;2023-05-17T14:38:44;24.60;45.90
43561;DHT22;32305;46.410;17.394;2023-05-17T14:41:12;24.60;45.70
43561;DHT22;32305;46.410;17.394;2023-05-17T14:43:39;24.60;45.70
43561;DHT22;32305;46.410;17.394;2023-05-17T14:46:06;24.50;45.70
43561;DHT22;32305;46.410;17.394;2023-05-17T14:48:33;24.50;45.70
43561;DHT22;32305;46.410;17.394;2023-05-17T14:51:00;24.50;45.70
43561;DHT22;32305;46.410;17.394;2023-05-17T14:53:29;24.50;45.70
43561;DHT22;32305;46.410;17.394;2023-05-17T14:55:57;24.50;45.80
43561;DHT22;32305;46.410;17.394;2023-05-17T14:58:25;24.50;45.80
43561;DHT22;32305;46.410;17.394;2023-05-17T15:00:55;24.50;45.90
43561;DHT22;32305;46.410;17.394;2023-05-17T15:03:33;24.40;45.90
43561;DHT22;32305;46.410;17.394;2023-05-17T15:06:01;24.40;46.00
43561;DHT22;32305;46.410;17.394;2023-05-17T15:08:32;24.40;46.10
43561;DHT22;32305;46.410;17.394;2023-05-17T15:11:00;24.30;46.20
43561;DHT22;32305;46.410;17.394;2023-05-17T15:13:27;24.30;46.40
43561;DHT22;32305;46.410;17.394;2023-05-17T15:15:55;24.30;46.60
43561;DHT22;32305;46.410;17.394;2023-05-17T15:18:24;24.30;46.90
43561;DHT22;32305;46.410;17.394;2023-05-17T15:20:51;24.30;47.70
43561;DHT22;32305;46.410;17.394;2023-05-17T15:23:18;24.30;49.30
43561;DHT22;32305;46.410;17.394;2023-05-17T15:25:46;24.30;50.80
43561;DHT22;32305;46.410;17.394;2023-05-17T15:28:13;24.30;52.00
43561;DHT22;32305;46.410;17.394;2023-05-17T15:30:40;24.30;52.50